sensor_id;sensor_type;location;lat;lon;timestamp;P1;durP1;ratioP1;P2;durP2;ratioP2
58896;SDS011;44677;52.378;10.400;2023-02-23T00:04:04;21.10;;;12.00;;
58896;SDS011;44677;52.378;10.400;2023-02-23T00:06:30;21.60;;;13.10;;
58896;SDS011;44677;52.378;10.400;2023-02-23T00:08:57;22.30;;;12.90;;
58896;SDS011;44677;52.378;10.400;2023-02-23T00:11:25;27.10;;;14.10;;
58896;SDS011;44677;52.378;10.400;2023-02-23T00:13:51;22.90;;;14.10;;
58896;SDS011;44677;52.378;10.400;2023-02-23T00:16:18;25.30;;;14.70;;
58896;SDS011;44677;52.378;10.400;2023-02-23T00:18:49;23.40;;;14.40;;
58896;SDS011;44677;52.378;10.400;2023-02-23T00:21:17;23.40;;;14.10;;
58896;SDS011;44677;52.378;10.400;2023-02-23T00:26:11;21.20;;;12.60;;
58896;SDS011;44677;52.378;10.400;2023-02-23T00:28:38;25.90;;;14.20;;
58896;SDS011;44677;52.378;10.400;2023-02-23T00:31:05;29.10;;;15.60;;
58896;SDS011;44677;52.378;10.400;2023-02-23T00:33:30;28.50;;;14.40;;
58896;SDS011;44677;52.378;10.400;2023-02-23T00:36:02;28.20;;;14.50;;
58896;SDS011;44677;52.378;10.400;2023-02-23T00:38:29;24.80;;;14.70;;
58896;SDS011;44677;52.378;10.400;2023-02-23T00:40:59;26.60;;;15.00;;
58896;SDS011;44677;52.378;10.400;2023-02-23T00:43:24;25.00;;;14.00;;
58896;SDS011;44677;52.378;10.400;2023-02-23T00:45:55;22.50;;;14.40;;
58896;SDS011;44677;52.378;10.400;2023-02-23T00:48:20;24.40;;;13.40;;
58896;SDS011;44677;52.378;10.400;2023-02-23T00:50:46;22.80;;;13.70;;
58896;SDS011;44677;52.378;10.400;2023-02-23T00:53:14;28.20;;;15.10;;
58896;SDS011;44677;52.378;10.400;2023-02-23T00:55:41;24.90;;;13.70;;
58896;SDS011;44677;52.378;10.400;2023-02-23T00:58:08;23.70;;;13.20;;
58896;SDS011;44677;52.378;10.400;2023-02-23T01:00:33;24.80;;;14.60;;
58896;SDS011;44677;52.378;10.400;2023-02-23T01:03:06;23.50;;;14.10;;
58896;SDS011;44677;52.378;10.400;2023-02-23T01:05:35;25.30;;;13.10;;
58896;SDS011;44677;52.378;10.400;2023-02-23T01:08:01;25.40;;;14.30;;
58896;SDS011;44677;52.378;10.400;2023-02-23T01:10:26;25.80;;;13.80;;
58896;SDS011;44677;52.378;10.400;2023-02-23T01:12:52;24.30;;;14.40;;
58896;SDS011;44677;52.378;10.400;2023-02-23T01:15:18;22.90;;;13.10;;
58896;SDS011;44677;52.378;10.400;2023-02-23T01:17:45;25.70;;;14.00;;
58896;SDS011;44677;52.378;10.400;2023-02-23T01:20:11;24.30;;;14.00;;
58896;SDS011;44677;52.378;10.400;2023-02-23T01:22:45;24.90;;;13.50;;
58896;SDS011;44677;52.378;10.400;2023-02-23T01:25:12;28.10;;;14.80;;
58896;SDS011;44677;52.378;10.400;2023-02-23T01:27:39;29.30;;;15.00;;
58896;SDS011;44677;52.378;10.400;2023-02-23T01:30:08;26.80;;;14.40;;
58896;SDS011;44677;52.378;10.400;2023-02-23T01:32:35;26.50;;;14.70;;
58896;SDS011;44677;52.378;10.400;2023-02-23T01:35:05;24.50;;;14.20;;
58896;SDS011;44677;52.378;10.400;2023-02-23T01:37:34;28.20;;;15.50;;
58896;SDS011;44677;52.378;10.400;2023-02-23T01:42:30;23.70;;;14.30;;
58896;SDS011;44677;52.378;10.400;2023-02-23T01:47:55;26.50;;;15.00;;
58896;SDS011;44677;52.378;10.400;2023-02-23T01:50:25;24.50;;;14.40;;
58896;SDS011;44677;52.378;10.400;2023-02-23T01:52:52;29.20;;;15.90;;
58896;SDS011;44677;52.378;10.400;2023-02-23T01:55:19;26.60;;;15.50;;
58896;SDS011;44677;52.378;10.400;2023-02-23T01:58:07;27.70;;;16.00;;
58896;SDS011;44677;52.378;10.400;2023-02-23T02:00:42;25.80;;;14.90;;
58896;SDS011;44677;52.378;10.400;2023-02-23T02:03:13;27.40;;;14.90;;
58896;SDS011;44677;52.378;10.400;2023-02-23T02:05:41;28.90;;;16.80;;
58896;SDS011;44677;52.378;10.400;2023-02-23T02:08:07;28.90;;;15.10;;
58896;SDS011;44677;52.378;10.400;2023-02-23T02:10:35;26.10;;;15.90;;
58896;SDS011;44677;52.378;10.400;2023-02-23T02:13:04;25.10;;;16.10;;
58896;SDS011;44677;52.378;10.400;2023-02-23T02:18:05;28.30;;;14.30;;
58896;SDS011;44677;52.378;10.400;2023-02-23T02:45:35;25.80;;;15.00;;
58896;SDS011;44677;52.378;10.400;2023-02-23T02:48:19;25.50;;;15.00;;
58896;SDS011;44677;52.378;10.400;2023-02-23T02:50:54;28.60;;;16.70;;
58896;SDS011;44677;52.378;10.400;2023-02-23T02:56:35;35.10;;;16.30;;
58896;SDS011;44677;52.378;10.400;2023-02-23T02:59:15;29.60;;;15.90;;
58896;SDS011;44677;52.378;10.400;2023-02-23T03:02:01;27.20;;;15.10;;
58896;SDS011;44677;52.378;10.400;2023-02-23T03:04:46;31.20;;;16.20;;
58896;SDS011;44677;52.378;10.400;2023-02-23T03:07:33;31.20;;;16.60;;
58896;SDS011;44677;52.378;10.400;2023-02-23T03:10:40;28.60;;;16.10;;
58896;SDS011;44677;52.378;10.400;2023-02-23T03:13:37;27.70;;;15.00;;
58896;SDS011;44677;52.378;10.400;2023-02-23T03:19:22;27.60;;;15.90;;
58896;SDS011;44677;52.378;10.400;2023-02-23T03:25:31;24.60;;;14.30;;
58896;SDS011;44677;52.378;10.400;2023-02-23T03:28:26;28.70;;;14.70;;
58896;SDS011;44677;52.378;10.400;2023-02-23T03:34:17;23.70;;;14.30;;
58896;SDS011;44677;52.378;10.400;2023-02-23T03:37:26;25.10;;;14.70;;
58896;SDS011;44677;52.378;10.400;2023-02-23T03:40:18;25.70;;;14.50;;
58896;SDS011;44677;52.378;10.400;2023-02-23T03:43:06;26.40;;;16.40;;
58896;SDS011;44677;52.378;10.400;2023-02-23T03:45:52;31.10;;;17.70;;
58896;SDS011;44677;52.378;10.400;2023-02-23T03:48:39;26.10;;;17.90;;
58896;SDS011;44677;52.378;10.400;2023-02-23T03:51:24;29.10;;;16.60;;
58896;SDS011;44677;52.378;10.400;2023-02-23T03:54:11;32.80;;;18.60;;
58896;SDS011;44677;52.378;10.400;2023-02-23T03:56:59;30.10;;;19.80;;
58896;SDS011;44677;52.378;10.400;2023-02-23T03:59:49;34.40;;;20.10;;
58896;SDS011;44677;52.378;10.400;2023-02-23T04:02:42;36.60;;;22.80;;
58896;SDS011;44677;52.378;10.400;2023-02-23T04:05:28;37.00;;;23.60;;
58896;SDS011;44677;52.378;10.400;2023-02-23T04:08:13;40.20;;;23.90;;
58896;SDS011;44677;52.378;10.400;2023-02-23T04:11:01;38.30;;;24.90;;
58896;SDS011;44677;52.378;10.400;2023-02-23T04:13:57;36.80;;;24.90;;
58896;SDS011;44677;52.378;10.400;2023-02-23T04:16:25;36.40;;;25.00;;
58896;SDS011;44677;52.378;10.400;2023-02-23T04:18:53;39.50;;;25.50;;
58896;SDS011;44677;52.378;10.400;2023-02-23T04:21:19;38.30;;;26.10;;
58896;SDS011;44677;52.378;10.400;2023-02-23T04:23:44;42.10;;;27.40;;
58896;SDS011;44677;52.378;10.400;2023-02-23T04:26:09;42.20;;;27.70;;
58896;SDS011;44677;52.378;10.400;2023-02-23T04:28:35;48.20;;;28.70;;
58896;SDS011;44677;52.378;10.400;2023-02-23T04:31:00;45.40;;;29.30;;
58896;SDS011;44677;52.378;10.400;2023-02-23T04:33:26;41.90;;;27.90;;
58896;SDS011;44677;52.378;10.400;2023-02-23T04:35:52;48.60;;;30.00;;
58896;SDS011;44677;52.378;10.400;2023-02-23T04:38:18;47.40;;;30.10;;
58896;SDS011;44677;52.378;10.400;2023-02-23T04:40:44;41.90;;;28.30;;
58896;SDS011;44677;52.378;10.400;2023-02-23T04:43:13;46.50;;;29.80;;
58896;SDS011;44677;52.378;10.400;2023-02-23T04:45:39;46.50;;;28.70;;
58896;SDS011;44677;52.378;10.400;2023-02-23T04:48:04;49.30;;;29.90;;
58896;SDS011;44677;52.378;10.400;2023-02-23T04:50:30;45.70;;;30.00;;
58896;SDS011;44677;52.378;10.400;2023-02-23T04:52:55;46.40;;;29.30;;
58896;SDS011;44677;52.378;10.400;2023-02-23T04:55:22;46.90;;;30.50;;
58896;SDS011;44677;52.378;10.400;2023-02-23T04:57:48;48.40;;;29.90;;
58896;SDS011;44677;52.378;10.400;2023-02-23T05:00:14;50.60;;;31.50;;
58896;SDS011;44677;52.378;10.400;2023-02-23T05:02:41;50.90;;;32.40;;
58896;SDS011;44677;52.378;10.400;2023-02-23T05:05:06;50.20;;;31.40;;
58896;SDS011;44677;52.378;10.400;2023-02-23T05:07:33;48.20;;;31.50;;
58896;SDS011;44677;52.378;10.400;2023-02-23T05:09:59;60.20;;;32.40;;
58896;SDS011;44677;52.378;10.400;2023-02-23T05:12:24;48.50;;;31.70;;
58896;SDS011;44677;52.378;10.400;2023-02-23T05:14:50;50.50;;;31.30;;
58896;SDS011;44677;52.378;10.400;2023-02-23T05:17:15;55.10;;;33.90;;
58896;SDS011;44677;52.378;10.400;2023-02-23T05:19:41;51.80;;;31.80;;
58896;SDS011;44677;52.378;10.400;2023-02-23T05:22:06;49.20;;;30.70;;
58896;SDS011;44677;52.378;10.400;2023-02-23T05:24:32;42.90;;;29.90;;
58896;SDS011;44677;52.378;10.400;2023-02-23T05:26:57;47.20;;;32.40;;
58896;SDS011;44677;52.378;10.400;2023-02-23T05:29:23;46.00;;;30.70;;
58896;SDS011;44677;52.378;10.400;2023-02-23T05:31:48;45.00;;;29.20;;
58896;SDS011;44677;52.378;10.400;2023-02-23T05:34:14;49.70;;;31.00;;
58896;SDS011;44677;52.378;10.400;2023-02-23T05:36:41;52.20;;;31.60;;
58896;SDS011;44677;52.378;10.400;2023-02-23T05:39:07;50.10;;;31.30;;
58896;SDS011;44677;52.378;10.400;2023-02-23T05:41:32;51.30;;;32.10;;
58896;SDS011;44677;52.378;10.400;2023-02-23T05:43:58;53.80;;;32.30;;
58896;SDS011;44677;52.378;10.400;2023-02-23T05:46:24;55.90;;;34.20;;
58896;SDS011;44677;52.378;10.400;2023-02-23T05:48:50;49.60;;;31.70;;
58896;SDS011;44677;52.378;10.400;2023-02-23T05:51:20;53.60;;;34.90;;
58896;SDS011;44677;52.378;10.400;2023-02-23T05:53:45;53.10;;;33.70;;
58896;SDS011;44677;52.378;10.400;2023-02-23T05:56:12;55.20;;;34.10;;
58896;SDS011;44677;52.378;10.400;2023-02-23T05:58:44;50.70;;;31.80;;
58896;SDS011;44677;52.378;10.400;2023-02-23T06:01:13;55.80;;;33.70;;
58896;SDS011;44677;52.378;10.400;2023-02-23T06:03:39;55.80;;;34.60;;
58896;SDS011;44677;52.378;10.400;2023-02-23T06:06:04;56.20;;;33.90;;
58896;SDS011;44677;52.378;10.400;2023-02-23T06:08:30;51.30;;;33.20;;
58896;SDS011;44677;52.378;10.400;2023-02-23T06:10:55;53.60;;;34.00;;
58896;SDS011;44677;52.378;10.400;2023-02-23T06:13:21;56.40;;;35.00;;
58896;SDS011;44677;52.378;10.400;2023-02-23T06:15:46;56.30;;;35.80;;
58896;SDS011;44677;52.378;10.400;2023-02-23T06:18:13;58.80;;;34.60;;
58896;SDS011;44677;52.378;10.400;2023-02-23T06:20:38;58.60;;;36.00;;
58896;SDS011;44677;52.378;10.400;2023-02-23T06:23:04;62.60;;;36.90;;
58896;SDS011;44677;52.378;10.400;2023-02-23T06:25:30;60.70;;;37.60;;
58896;SDS011;44677;52.378;10.400;2023-02-23T06:27:56;60.10;;;36.60;;
58896;SDS011;44677;52.378;10.400;2023-02-23T06:30:21;61.90;;;36.90;;
58896;SDS011;44677;52.378;10.400;2023-02-23T06:32:47;49.20;;;30.60;;
58896;SDS011;44677;52.378;10.400;2023-02-23T06:35:14;42.70;;;24.90;;
58896;SDS011;44677;52.378;10.400;2023-02-23T06:37:40;47.30;;;28.90;;
58896;SDS011;44677;52.378;10.400;2023-02-23T06:40:05;56.20;;;35.20;;
58896;SDS011;44677;52.378;10.400;2023-02-23T06:42:31;54.20;;;33.60;;
58896;SDS011;44677;52.378;10.400;2023-02-23T06:44:56;50.00;;;32.80;;
58896;SDS011;44677;52.378;10.400;2023-02-23T06:47:22;46.80;;;31.40;;
58896;SDS011;44677;52.378;10.400;2023-02-23T06:49:47;49.40;;;31.60;;
58896;SDS011;44677;52.378;10.400;2023-02-23T06:52:13;50.10;;;31.10;;
58896;SDS011;44677;52.378;10.400;2023-02-23T06:54:39;44.00;;;30.90;;
58896;SDS011;44677;52.378;10.400;2023-02-23T06:57:06;47.70;;;30.90;;
58896;SDS011;44677;52.378;10.400;2023-02-23T06:59:32;47.90;;;32.10;;
58896;SDS011;44677;52.378;10.400;2023-02-23T07:01:58;53.00;;;32.60;;
58896;SDS011;44677;52.378;10.400;2023-02-23T07:04:23;52.60;;;32.70;;
58896;SDS011;44677;52.378;10.400;2023-02-23T07:06:50;55.30;;;34.20;;
58896;SDS011;44677;52.378;10.400;2023-02-23T07:09:16;51.50;;;33.40;;
58896;SDS011;44677;52.378;10.400;2023-02-23T07:11:41;54.60;;;33.70;;
58896;SDS011;44677;52.378;10.400;2023-02-23T07:14:09;53.70;;;32.90;;
58896;SDS011;44677;52.378;10.400;2023-02-23T07:16:35;51.00;;;33.60;;
58896;SDS011;44677;52.378;10.400;2023-02-23T07:19:01;54.90;;;32.90;;
58896;SDS011;44677;52.378;10.400;2023-02-23T07:21:26;53.80;;;33.80;;
58896;SDS011;44677;52.378;10.400;2023-02-23T07:23:52;55.20;;;34.60;;
58896;SDS011;44677;52.378;10.400;2023-02-23T07:26:17;56.00;;;34.90;;
58896;SDS011;44677;52.378;10.400;2023-02-23T07:28:43;57.30;;;35.80;;
58896;SDS011;44677;52.378;10.400;2023-02-23T07:31:08;53.30;;;33.40;;
58896;SDS011;44677;52.378;10.400;2023-02-23T07:33:34;55.40;;;33.30;;
58896;SDS011;44677;52.378;10.400;2023-02-23T07:35:59;52.10;;;34.60;;
58896;SDS011;44677;52.378;10.400;2023-02-23T07:38:25;53.10;;;33.20;;
58896;SDS011;44677;52.378;10.400;2023-02-23T07:40:51;61.40;;;35.40;;
58896;SDS011;44677;52.378;10.400;2023-02-23T07:43:17;63.10;;;37.10;;
58896;SDS011;44677;52.378;10.400;2023-02-23T07:45:44;62.50;;;38.40;;
58896;SDS011;44677;52.378;10.400;2023-02-23T07:48:10;62.00;;;38.30;;
58896;SDS011;44677;52.378;10.400;2023-02-23T07:50:35;59.50;;;37.30;;
58896;SDS011;44677;52.378;10.400;2023-02-23T07:53:00;62.10;;;37.20;;
58896;SDS011;44677;52.378;10.400;2023-02-23T07:55:27;64.80;;;38.40;;
58896;SDS011;44677;52.378;10.400;2023-02-23T07:57:52;59.20;;;38.00;;
58896;SDS011;44677;52.378;10.400;2023-02-23T08:00:18;61.90;;;37.50;;
58896;SDS011;44677;52.378;10.400;2023-02-23T08:02:43;62.60;;;37.30;;
58896;SDS011;44677;52.378;10.400;2023-02-23T08:05:09;67.90;;;39.30;;
58896;SDS011;44677;52.378;10.400;2023-02-23T08:07:34;60.10;;;36.80;;
58896;SDS011;44677;52.378;10.400;2023-02-23T08:10:00;61.90;;;38.20;;
58896;SDS011;44677;52.378;10.400;2023-02-23T08:12:25;62.50;;;38.50;;
58896;SDS011;44677;52.378;10.400;2023-02-23T08:14:50;64.70;;;38.30;;
58896;SDS011;44677;52.378;10.400;2023-02-23T08:17:17;61.90;;;36.60;;
58896;SDS011;44677;52.378;10.400;2023-02-23T08:19:43;65.40;;;36.30;;
58896;SDS011;44677;52.378;10.400;2023-02-23T08:22:08;62.60;;;38.20;;
58896;SDS011;44677;52.378;10.400;2023-02-23T08:24:34;70.30;;;38.70;;
58896;SDS011;44677;52.378;10.400;2023-02-23T08:27:00;68.80;;;39.40;;
58896;SDS011;44677;52.378;10.400;2023-02-23T08:29:27;63.30;;;36.60;;
58896;SDS011;44677;52.378;10.400;2023-02-23T08:31:53;67.10;;;39.60;;
58896;SDS011;44677;52.378;10.400;2023-02-23T08:34:20;66.80;;;37.60;;
58896;SDS011;44677;52.378;10.400;2023-02-23T08:36:47;66.90;;;37.90;;
58896;SDS011;44677;52.378;10.400;2023-02-23T08:39:13;62.50;;;38.30;;
58896;SDS011;44677;52.378;10.400;2023-02-23T08:41:39;63.30;;;37.30;;
58896;SDS011;44677;52.378;10.400;2023-02-23T08:44:06;69.10;;;38.10;;
58896;SDS011;44677;52.378;10.400;2023-02-23T08:46:31;63.50;;;37.60;;
58896;SDS011;44677;52.378;10.400;2023-02-23T08:48:57;64.80;;;36.40;;
58896;SDS011;44677;52.378;10.400;2023-02-23T08:51:22;62.30;;;37.90;;
58896;SDS011;44677;52.378;10.400;2023-02-23T08:53:48;64.90;;;38.30;;
58896;SDS011;44677;52.378;10.400;2023-02-23T08:56:14;70.20;;;39.00;;
58896;SDS011;44677;52.378;10.400;2023-02-23T08:58:40;71.80;;;38.90;;
58896;SDS011;44677;52.378;10.400;2023-02-23T09:01:06;72.00;;;39.00;;
58896;SDS011;44677;52.378;10.400;2023-02-23T09:03:32;79.00;;;42.60;;
58896;SDS011;44677;52.378;10.400;2023-02-23T09:06:06;74.10;;;40.50;;
58896;SDS011;44677;52.378;10.400;2023-02-23T09:11:03;76.50;;;39.90;;
58896;SDS011;44677;52.378;10.400;2023-02-23T09:13:29;80.40;;;41.80;;
58896;SDS011;44677;52.378;10.400;2023-02-23T09:15:54;73.90;;;40.50;;
58896;SDS011;44677;52.378;10.400;2023-02-23T09:18:20;86.50;;;42.30;;
58896;SDS011;44677;52.378;10.400;2023-02-23T09:20:48;73.80;;;38.80;;
58896;SDS011;44677;52.378;10.400;2023-02-23T09:23:14;76.40;;;40.60;;
58896;SDS011;44677;52.378;10.400;2023-02-23T09:25:43;81.20;;;41.10;;
58896;SDS011;44677;52.378;10.400;2023-02-23T09:28:13;77.90;;;40.30;;
58896;SDS011;44677;52.378;10.400;2023-02-23T09:30:41;80.40;;;41.40;;
58896;SDS011;44677;52.378;10.400;2023-02-23T09:33:07;92.40;;;44.20;;
58896;SDS011;44677;52.378;10.400;2023-02-23T09:35:33;84.30;;;42.40;;
58896;SDS011;44677;52.378;10.400;2023-02-23T09:38:02;97.00;;;43.50;;
58896;SDS011;44677;52.378;10.400;2023-02-23T09:40:44;92.40;;;42.50;;
58896;SDS011;44677;52.378;10.400;2023-02-23T09:43:17;91.40;;;42.20;;
58896;SDS011;44677;52.378;10.400;2023-02-23T09:45:48;83.90;;;40.10;;
58896;SDS011;44677;52.378;10.400;2023-02-23T09:48:31;77.70;;;38.90;;
58896;SDS011;44677;52.378;10.400;2023-02-23T09:50:58;66.10;;;35.40;;
58896;SDS011;44677;52.378;10.400;2023-02-23T09:53:26;64.40;;;34.60;;
58896;SDS011;44677;52.378;10.400;2023-02-23T09:56:13;63.50;;;34.20;;
58896;SDS011;44677;52.378;10.400;2023-02-23T09:58:54;54.40;;;31.90;;
58896;SDS011;44677;52.378;10.400;2023-02-23T10:07:15;44.00;;;28.40;;
58896;SDS011;44677;52.378;10.400;2023-02-23T10:09:49;40.50;;;26.70;;
58896;SDS011;44677;52.378;10.400;2023-02-23T10:17:47;39.10;;;25.50;;
58896;SDS011;44677;52.378;10.400;2023-02-23T10:23:03;37.50;;;23.70;;
58896;SDS011;44677;52.378;10.400;2023-02-23T10:25:34;37.90;;;23.80;;
58896;SDS011;44677;52.378;10.400;2023-02-23T10:28:01;38.10;;;24.40;;
58896;SDS011;44677;52.378;10.400;2023-02-23T10:30:28;35.30;;;23.60;;
58896;SDS011;44677;52.378;10.400;2023-02-23T10:33:02;34.30;;;22.80;;
58896;SDS011;44677;52.378;10.400;2023-02-23T10:35:30;33.70;;;23.20;;
58896;SDS011;44677;52.378;10.400;2023-02-23T10:40:25;30.40;;;22.00;;
58896;SDS011;44677;52.378;10.400;2023-02-23T10:42:53;34.20;;;22.50;;
58896;SDS011;44677;52.378;10.400;2023-02-23T10:45:22;31.90;;;22.90;;
58896;SDS011;44677;52.378;10.400;2023-02-23T10:47:54;35.00;;;22.90;;
58896;SDS011;44677;52.378;10.400;2023-02-23T10:50:26;33.00;;;22.20;;
58896;SDS011;44677;52.378;10.400;2023-02-23T10:52:54;33.50;;;22.40;;
58896;SDS011;44677;52.378;10.400;2023-02-23T10:55:24;33.40;;;23.30;;
58896;SDS011;44677;52.378;10.400;2023-02-23T10:58:00;33.30;;;23.40;;
58896;SDS011;44677;52.378;10.400;2023-02-23T11:00:39;37.60;;;24.90;;
58896;SDS011;44677;52.378;10.400;2023-02-23T11:03:15;36.50;;;24.30;;
58896;SDS011;44677;52.378;10.400;2023-02-23T11:05:46;38.40;;;25.70;;
58896;SDS011;44677;52.378;10.400;2023-02-23T11:11:01;48.50;;;29.30;;
58896;SDS011;44677;52.378;10.400;2023-02-23T11:13:40;48.70;;;30.50;;
58896;SDS011;44677;52.378;10.400;2023-02-23T11:16:20;49.70;;;31.70;;
58896;SDS011;44677;52.378;10.400;2023-02-23T11:21:28;51.20;;;30.70;;
58896;SDS011;44677;52.378;10.400;2023-02-23T11:24:13;49.90;;;30.70;;
58896;SDS011;44677;52.378;10.400;2023-02-23T11:26:49;52.80;;;31.50;;
58896;SDS011;44677;52.378;10.400;2023-02-23T11:31:51;53.00;;;32.20;;
58896;SDS011;44677;52.378;10.400;2023-02-23T11:34:37;57.40;;;33.90;;
58896;SDS011;44677;52.378;10.400;2023-02-23T11:37:06;58.20;;;33.40;;
58896;SDS011;44677;52.378;10.400;2023-02-23T11:42:20;57.80;;;33.70;;
58896;SDS011;44677;52.378;10.400;2023-02-23T11:47:32;57.20;;;33.10;;
58896;SDS011;44677;52.378;10.400;2023-02-23T11:49:59;53.20;;;32.90;;
58896;SDS011;44677;52.378;10.400;2023-02-23T11:52:25;59.40;;;34.50;;
58896;SDS011;44677;52.378;10.400;2023-02-23T11:55:04;58.90;;;34.30;;
58896;SDS011;44677;52.378;10.400;2023-02-23T11:57:33;55.60;;;33.50;;
58896;SDS011;44677;52.378;10.400;2023-02-23T12:00:00;52.30;;;31.60;;
58896;SDS011;44677;52.378;10.400;2023-02-23T12:05:37;35.30;;;19.90;;
58896;SDS011;44677;52.378;10.400;2023-02-23T12:08:05;40.20;;;26.10;;
58896;SDS011;44677;52.378;10.400;2023-02-23T12:10:46;33.70;;;20.70;;
58896;SDS011;44677;52.378;10.400;2023-02-23T12:13:26;34.60;;;21.40;;
58896;SDS011;44677;52.378;10.400;2023-02-23T12:15:55;35.40;;;23.20;;
58896;SDS011;44677;52.378;10.400;2023-02-23T12:18:36;37.30;;;24.70;;
58896;SDS011;44677;52.378;10.400;2023-02-23T12:21:10;35.20;;;24.10;;
58896;SDS011;44677;52.378;10.400;2023-02-23T12:23:44;35.60;;;23.40;;
58896;SDS011;44677;52.378;10.400;2023-02-23T12:26:16;33.00;;;23.30;;
58896;SDS011;44677;52.378;10.400;2023-02-23T12:31:20;38.80;;;25.60;;
58896;SDS011;44677;52.378;10.400;2023-02-23T12:34:43;43.40;;;27.90;;
58896;SDS011;44677;52.378;10.400;2023-02-23T12:37:36;41.20;;;27.40;;
58896;SDS011;44677;52.378;10.400;2023-02-23T12:40:34;42.10;;;28.10;;
58896;SDS011;44677;52.378;10.400;2023-02-23T12:43:10;41.40;;;27.90;;
58896;SDS011;44677;52.378;10.400;2023-02-23T12:45:55;36.10;;;24.00;;
58896;SDS011;44677;52.378;10.400;2023-02-23T12:54:50;37.60;;;25.40;;
58896;SDS011;44677;52.378;10.400;2023-02-23T13:03:14;30.40;;;20.10;;
58896;SDS011;44677;52.378;10.400;2023-02-23T13:11:26;30.00;;;20.40;;
58896;SDS011;44677;52.378;10.400;2023-02-23T13:14:03;27.30;;;19.10;;
58896;SDS011;44677;52.378;10.400;2023-02-23T13:16:55;29.00;;;20.10;;
58896;SDS011;44677;52.378;10.400;2023-02-23T13:19:28;27.00;;;18.90;;
58896;SDS011;44677;52.378;10.400;2023-02-23T13:29:48;26.00;;;18.40;;
58896;SDS011;44677;52.378;10.400;2023-02-23T13:32:28;24.30;;;17.50;;
58896;SDS011;44677;52.378;10.400;2023-02-23T13:35:13;23.30;;;16.90;;
58896;SDS011;44677;52.378;10.400;2023-02-23T13:40:51;23.60;;;16.80;;
58896;SDS011;44677;52.378;10.400;2023-02-23T13:43:38;23.20;;;15.80;;
58896;SDS011;44677;52.378;10.400;2023-02-23T13:46:27;22.40;;;15.80;;
58896;SDS011;44677;52.378;10.400;2023-02-23T13:52:09;22.40;;;15.70;;
58896;SDS011;44677;52.378;10.400;2023-02-23T13:55:02;23.20;;;15.70;;
58896;SDS011;44677;52.378;10.400;2023-02-23T13:57:28;24.10;;;16.30;;
58896;SDS011;44677;52.378;10.400;2023-02-23T13:59:55;21.30;;;15.40;;
58896;SDS011;44677;52.378;10.400;2023-02-23T14:02:40;21.80;;;16.10;;
58896;SDS011;44677;52.378;10.400;2023-02-23T14:07:53;25.70;;;15.60;;
58896;SDS011;44677;52.378;10.400;2023-02-23T14:10:29;21.20;;;15.30;;
58896;SDS011;44677;52.378;10.400;2023-02-23T14:13:03;24.00;;;16.80;;
58896;SDS011;44677;52.378;10.400;2023-02-23T14:15:46;27.20;;;16.60;;
58896;SDS011;44677;52.378;10.400;2023-02-23T14:23:27;26.30;;;16.10;;
58896;SDS011;44677;52.378;10.400;2023-02-23T14:28:46;22.90;;;15.40;;
58896;SDS011;44677;52.378;10.400;2023-02-23T14:31:20;23.20;;;16.70;;
58896;SDS011;44677;52.378;10.400;2023-02-23T14:33:57;26.40;;;17.60;;
58896;SDS011;44677;52.378;10.400;2023-02-23T14:36:37;23.10;;;16.00;;
58896;SDS011;44677;52.378;10.400;2023-02-23T14:39:13;21.90;;;15.30;;
58896;SDS011;44677;52.378;10.400;2023-02-23T14:41:47;23.50;;;15.90;;
58896;SDS011;44677;52.378;10.400;2023-02-23T14:44:30;23.40;;;15.50;;
58896;SDS011;44677;52.378;10.400;2023-02-23T14:47:05;23.10;;;15.80;;
58896;SDS011;44677;52.378;10.400;2023-02-23T14:49:33;25.60;;;16.30;;
58896;SDS011;44677;52.378;10.400;2023-02-23T14:52:11;25.50;;;15.60;;
58896;SDS011;44677;52.378;10.400;2023-02-23T14:54:43;24.00;;;16.30;;
58896;SDS011;44677;52.378;10.400;2023-02-23T14:59:55;20.40;;;14.20;;
58896;SDS011;44677;52.378;10.400;2023-02-23T15:02:21;23.70;;;15.00;;
58896;SDS011;44677;52.378;10.400;2023-02-23T15:04:48;22.60;;;15.20;;
58896;SDS011;44677;52.378;10.400;2023-02-23T15:07:36;23.50;;;15.20;;
58896;SDS011;44677;52.378;10.400;2023-02-23T15:10:01;22.30;;;14.50;;
58896;SDS011;44677;52.378;10.400;2023-02-23T15:12:34;21.10;;;14.50;;
58896;SDS011;44677;52.378;10.400;2023-02-23T15:15:03;22.00;;;14.30;;
58896;SDS011;44677;52.378;10.400;2023-02-23T15:17:31;23.70;;;14.10;;
58896;SDS011;44677;52.378;10.400;2023-02-23T15:22:31;22.20;;;14.00;;
58896;SDS011;44677;52.378;10.400;2023-02-23T15:24:59;26.60;;;15.00;;
58896;SDS011;44677;52.378;10.400;2023-02-23T15:27:38;25.50;;;14.20;;
58896;SDS011;44677;52.378;10.400;2023-02-23T15:30:26;25.20;;;14.50;;
58896;SDS011;44677;52.378;10.400;2023-02-23T15:33:03;23.80;;;14.70;;
58896;SDS011;44677;52.378;10.400;2023-02-23T15:35:41;26.50;;;15.40;;
58896;SDS011;44677;52.378;10.400;2023-02-23T15:38:14;22.80;;;14.40;;
58896;SDS011;44677;52.378;10.400;2023-02-23T15:40:43;23.90;;;14.60;;
58896;SDS011;44677;52.378;10.400;2023-02-23T15:43:09;23.40;;;15.60;;
58896;SDS011;44677;52.378;10.400;2023-02-23T15:45:42;23.20;;;15.00;;
58896;SDS011;44677;52.378;10.400;2023-02-23T15:48:12;24.00;;;15.60;;
58896;SDS011;44677;52.378;10.400;2023-02-23T15:50:48;23.40;;;14.80;;
58896;SDS011;44677;52.378;10.400;2023-02-23T15:53:22;23.80;;;15.20;;
58896;SDS011;44677;52.378;10.400;2023-02-23T15:55:56;25.90;;;15.10;;
58896;SDS011;44677;52.378;10.400;2023-02-23T15:58:29;26.60;;;14.70;;
58896;SDS011;44677;52.378;10.400;2023-02-23T16:00:58;23.90;;;14.20;;
58896;SDS011;44677;52.378;10.400;2023-02-23T16:03:36;24.90;;;14.90;;
58896;SDS011;44677;52.378;10.400;2023-02-23T16:06:24;25.60;;;14.60;;
58896;SDS011;44677;52.378;10.400;2023-02-23T16:11:21;26.40;;;13.90;;
58896;SDS011;44677;52.378;10.400;2023-02-23T16:13:46;27.80;;;14.10;;
58896;SDS011;44677;52.378;10.400;2023-02-23T16:16:14;26.00;;;14.70;;
58896;SDS011;44677;52.378;10.400;2023-02-23T16:18:45;27.90;;;14.20;;
58896;SDS011;44677;52.378;10.400;2023-02-23T16:21:22;26.20;;;13.60;;
58896;SDS011;44677;52.378;10.400;2023-02-23T16:26:17;24.60;;;14.30;;
58896;SDS011;44677;52.378;10.400;2023-02-23T16:28:50;30.10;;;15.90;;
58896;SDS011;44677;52.378;10.400;2023-02-23T16:31:46;26.60;;;15.00;;
58896;SDS011;44677;52.378;10.400;2023-02-23T16:37:03;25.90;;;14.40;;
58896;SDS011;44677;52.378;10.400;2023-02-23T16:39:44;29.10;;;15.30;;
58896;SDS011;44677;52.378;10.400;2023-02-23T16:42:53;28.40;;;14.30;;
58896;SDS011;44677;52.378;10.400;2023-02-23T16:44:59;27.60;;;14.50;;
58896;SDS011;44677;52.378;10.400;2023-02-23T16:47:31;31.20;;;15.60;;
58896;SDS011;44677;52.378;10.400;2023-02-23T16:50:15;31.10;;;16.70;;
58896;SDS011;44677;52.378;10.400;2023-02-23T16:52:43;30.20;;;15.80;;
58896;SDS011;44677;52.378;10.400;2023-02-23T16:55:13;30.50;;;15.50;;
58896;SDS011;44677;52.378;10.400;2023-02-23T16:57:46;30.80;;;15.30;;